Hlavní strana
METAR-TAF:

METAR-TAF

Letiště :

David, Panama

zeměpisná šířka: 08-24N, zeměpisná délka: 082-25W, výška: 29 m

Aktuální stav počasí

Zpráva byla vytvořena před 7 hodinami a 4 minutami, v 03:00 UTC
Bezvětří
Teplota 23°C
Vlhkost vzduchu 100%
Tlak 1009 hPa
Viditelnost 10 km a více
Skoro jasno ve výšce 1800 ft
Polojasno ve výšce 8000 ft

METAR: MPDA 170300Z 00000KT 9999 FEW018 SCT080 23/23 Q1009

Čas: 05:04 (10:04 UTC)

Předpověď počasí

Zpráva byla vytvořena před 11 hodinami a 4 minutami, v 23:00 UTC
Předpověď platná od 17 v 00 UTC do 17 v 12 UTC
Západní vítr 6 kt
Viditelnost 10 km a více
Polojasno ve výšce 1800 ft
Polojasno ve výšce 9000 ft

TAF: MPDA 162300Z 1700/1712 26006KT 9999 SCT018 SCT090

Stav a předpovědi počasí z více než 4 000 letišť (zprávy METAR a TAF).

Červené a žluté tečky na mapě představují dostupné meteorologické stanice.

Když kurzor umístíte na tečku, zobrazí se název stanice.

Pak kliknutím zobrazíte stav a předpověď počasí.

Chcete-li změnit mapu, kliknutím na zelené tlačítko se znaménkem +mapu přiblížíte, kliknutím na zelené tlačítko se znaménkem – mapu oddálíte a kliknutím na zelené šipky přejdete na sousední mapy.


METAR-TAF: